createdAt,value
2018-03-21T00:00:46.802Z,1.40
2018-03-21T00:03:13.181Z,1.40
2018-03-21T00:05:40.383Z,1.40
2018-03-21T00:08:06.770Z,1.40
2018-03-21T00:10:33.922Z,1.20
2018-03-21T00:13:01.041Z,1.30
2018-03-21T00:15:27.495Z,1.30
2018-03-21T00:17:54.602Z,1.20
2018-03-21T00:20:20.977Z,1.20
2018-03-21T00:22:47.418Z,1.00
2018-03-21T00:25:13.775Z,1.00
2018-03-21T00:27:40.223Z,1.00
2018-03-21T00:30:06.636Z,1.00
2018-03-21T00:32:33.028Z,1.00
2018-03-21T00:35:00.138Z,0.90
2018-03-21T00:37:26.527Z,0.80
2018-03-21T00:39:52.950Z,0.80
2018-03-21T00:42:19.357Z,0.80
2018-03-21T00:44:46.455Z,0.80
2018-03-21T00:47:12.865Z,0.80
2018-03-21T00:49:39.218Z,0.80
2018-03-21T00:52:05.593Z,0.80
2018-03-21T00:54:32.710Z,0.70
2018-03-21T00:56:59.088Z,0.70
2018-03-21T00:59:26.251Z,0.70
2018-03-21T01:01:52.634Z,0.70
2018-03-21T01:04:19.121Z,0.80
2018-03-21T01:06:45.501Z,0.80
2018-03-21T01:09:11.939Z,0.80
2018-03-21T01:11:38.327Z,0.70
2018-03-21T01:14:04.801Z,0.70
2018-03-21T01:16:31.173Z,0.70
2018-03-21T01:18:57.555Z,0.70
2018-03-21T01:21:24.690Z,0.70
2018-03-21T01:23:51.090Z,0.60
2018-03-21T01:26:17.504Z,0.60
2018-03-21T01:28:44.615Z,0.50
2018-03-21T01:31:11.028Z,0.50
2018-03-21T01:33:37.474Z,0.50
2018-03-21T01:36:03.880Z,0.50
2018-03-21T01:38:30.330Z,0.50
2018-03-21T01:40:56.712Z,0.40
2018-03-21T01:43:23.194Z,0.40
2018-03-21T01:45:49.630Z,0.40
2018-03-21T01:48:16.026Z,0.40
2018-03-21T01:50:42.438Z,0.40
2018-03-21T01:53:09.689Z,0.40
2018-03-21T01:55:36.081Z,0.30
2018-03-21T01:58:02.512Z,0.30
2018-03-21T02:00:28.882Z,0.30
2018-03-21T02:02:55.268Z,0.30
2018-03-21T02:05:21.658Z,0.20
2018-03-21T02:07:48.061Z,0.20
2018-03-21T02:10:15.180Z,0.20
2018-03-21T02:12:41.573Z,0.20
2018-03-21T02:15:07.986Z,0.20
2018-03-21T02:17:34.342Z,0.20
2018-03-21T02:20:00.729Z,0.20
2018-03-21T02:22:27.874Z,0.10
2018-03-21T02:24:54.265Z,0.10
2018-03-21T02:27:20.635Z,0.10
2018-03-21T02:29:47.789Z,0.10
2018-03-21T02:32:14.907Z,0.10
2018-03-21T02:34:41.313Z,0.10
2018-03-21T02:37:07.720Z,0.10
2018-03-21T02:39:34.145Z,0.10
2018-03-21T02:42:00.538Z,0.10
2018-03-21T02:44:27.700Z,0.10
2018-03-21T02:46:54.103Z,0.10
2018-03-21T02:49:20.454Z,0.10
2018-03-21T02:51:47.584Z,0.10
2018-03-21T02:54:13.928Z,0.10
2018-03-21T02:56:41.150Z,0.10
2018-03-21T02:59:07.503Z,0.10
2018-03-21T03:01:33.916Z,0.10
2018-03-21T03:04:00.273Z,0.00
2018-03-21T03:06:27.487Z,0.00
2018-03-21T03:08:53.931Z,0.00
2018-03-21T03:11:20.295Z,0.00
2018-03-21T03:13:47.428Z,-0.10
2018-03-21T03:16:14.567Z,0.00
2018-03-21T03:18:40.987Z,0.00
2018-03-21T03:21:07.376Z,0.00
2018-03-21T03:23:33.764Z,-0.10
2018-03-21T03:26:00.146Z,-0.10
2018-03-21T03:28:26.533Z,-0.10
2018-03-21T03:30:53.653Z,-0.10
2018-03-21T03:33:20.069Z,-0.10
2018-03-21T03:35:46.468Z,-0.10
2018-03-21T03:38:12.860Z,-0.20
2018-03-21T03:40:39.281Z,-0.20
2018-03-21T03:43:05.640Z,-0.20
2018-03-21T03:45:32.058Z,-0.20
2018-03-21T03:47:58.402Z,-0.20
2018-03-21T03:50:25.558Z,-0.20
2018-03-21T03:52:51.930Z,-0.20
2018-03-21T03:55:18.321Z,-0.20
2018-03-21T03:57:45.447Z,-0.40
2018-03-21T04:00:11.971Z,-0.40
2018-03-21T04:02:38.358Z,-0.40
2018-03-21T04:05:04.837Z,-0.40
2018-03-21T04:07:31.226Z,-0.40
2018-03-21T04:09:57.664Z,-0.50
2018-03-21T04:12:24.053Z,-0.60
2018-03-21T04:14:52.087Z,-0.60
2018-03-21T04:17:18.466Z,-0.70
2018-03-21T04:19:44.863Z,-0.60
2018-03-21T04:22:11.334Z,-0.60
2018-03-21T04:24:37.725Z,-0.60
2018-03-21T04:27:04.137Z,-0.70
2018-03-21T04:29:30.513Z,-0.80
2018-03-21T04:31:56.883Z,-0.80
2018-03-21T04:34:23.263Z,-0.80
2018-03-21T04:36:50.389Z,-0.90
2018-03-21T04:39:16.781Z,-1.00
2018-03-21T04:41:43.157Z,-0.90
2018-03-21T04:44:09.581Z,-0.90
2018-03-21T04:46:35.971Z,-0.90
2018-03-21T04:49:02.431Z,-0.80
2018-03-21T04:51:28.835Z,-0.70
2018-03-21T04:53:55.279Z,-0.60
2018-03-21T04:56:21.660Z,-0.60
2018-03-21T04:58:48.094Z,-0.50
2018-03-21T05:01:14.555Z,-0.70
2018-03-21T05:03:40.933Z,-0.80
2018-03-21T05:06:08.471Z,-0.90
2018-03-21T05:08:34.841Z,-0.90
2018-03-21T05:11:01.947Z,-0.80
2018-03-21T05:13:28.325Z,-0.80
2018-03-21T05:15:55.452Z,-0.70
2018-03-21T05:18:22.560Z,-0.70
2018-03-21T05:20:48.934Z,-0.70
2018-03-21T05:23:15.318Z,-0.70
2018-03-21T05:25:42.610Z,-0.60
2018-03-21T05:28:09.005Z,-0.60
2018-03-21T05:30:35.384Z,-0.60
2018-03-21T05:33:02.578Z,-0.70
2018-03-21T05:35:28.974Z,-0.60
2018-03-21T05:37:56.152Z,-0.60
2018-03-21T05:40:22.541Z,-0.70
2018-03-21T05:42:49.700Z,-0.60
2018-03-21T05:45:16.889Z,-0.60
2018-03-21T05:47:43.376Z,-0.60
2018-03-21T05:50:10.544Z,-0.70
2018-03-21T05:52:36.937Z,-0.70
2018-03-21T05:55:03.407Z,-0.80
2018-03-21T05:57:29.865Z,-0.80
2018-03-21T05:59:56.232Z,-0.90
2018-03-21T06:02:22.630Z,-1.00
2018-03-21T06:04:49.066Z,-0.90
2018-03-21T06:07:15.480Z,-0.90
2018-03-21T06:09:41.911Z,-0.90
2018-03-21T06:12:08.365Z,-0.90
2018-03-21T06:14:34.786Z,-0.90
2018-03-21T06:17:01.353Z,-0.90
2018-03-21T06:19:27.755Z,-1.00
2018-03-21T06:21:54.170Z,-0.90
2018-03-21T06:24:20.622Z,-1.00
2018-03-21T06:26:47.021Z,-1.00
2018-03-21T06:29:13.400Z,-0.90
2018-03-21T06:31:39.841Z,-0.90
2018-03-21T06:34:06.216Z,-0.70
2018-03-21T06:36:32.700Z,-0.70
2018-03-21T06:38:59.138Z,-0.70
2018-03-21T06:41:25.657Z,-0.70
2018-03-21T06:43:52.028Z,-0.70
2018-03-21T06:46:18.478Z,-0.70
2018-03-21T06:48:44.872Z,-0.70
2018-03-21T06:51:11.279Z,-0.70
2018-03-21T06:53:37.710Z,-0.80
2018-03-21T06:56:04.130Z,-0.80
2018-03-21T06:58:30.604Z,-0.70
2018-03-21T07:00:57.754Z,-0.50
2018-03-21T07:03:24.902Z,-0.50
2018-03-21T07:05:52.045Z,-0.40
2018-03-21T07:08:18.437Z,-0.40
2018-03-21T07:10:44.931Z,-0.30
2018-03-21T07:13:11.388Z,-0.30
2018-03-21T07:15:56.342Z,-0.20
2018-03-21T07:18:22.759Z,-0.20
2018-03-21T07:20:50.006Z,-0.30
2018-03-21T07:23:16.423Z,-0.30
2018-03-21T07:25:42.840Z,-0.40
2018-03-21T07:28:09.229Z,-0.40
2018-03-21T07:30:35.634Z,-0.20
2018-03-21T07:33:02.795Z,0.00
2018-03-21T07:35:29.196Z,0.00
2018-03-21T07:37:55.561Z,0.10
2018-03-21T07:40:21.929Z,0.10
2018-03-21T07:42:48.292Z,0.00
2018-03-21T07:45:14.720Z,0.10
2018-03-21T07:47:41.115Z,0.20
2018-03-21T07:50:07.511Z,0.30
2018-03-21T07:52:33.979Z,0.30
2018-03-21T07:55:00.349Z,0.40
2018-03-21T07:57:27.530Z,0.30
2018-03-21T07:59:53.970Z,0.30
2018-03-21T08:02:20.408Z,0.40
2018-03-21T08:04:46.804Z,0.40
2018-03-21T08:07:13.228Z,0.50
2018-03-21T08:09:40.345Z,0.60
2018-03-21T08:12:06.787Z,0.60
2018-03-21T08:14:33.209Z,0.70
2018-03-21T08:16:59.611Z,0.70
2018-03-21T08:19:26.017Z,0.70
2018-03-21T08:21:52.486Z,0.70
2018-03-21T08:24:18.854Z,0.80
2018-03-21T08:26:45.225Z,0.80
2018-03-21T08:29:11.693Z,0.90
2018-03-21T08:31:38.125Z,0.90
2018-03-21T08:34:04.588Z,1.00
2018-03-21T08:36:31.722Z,1.00
2018-03-21T08:38:58.102Z,1.00
2018-03-21T08:41:24.534Z,1.00
2018-03-21T08:43:50.954Z,1.00
2018-03-21T08:46:17.350Z,1.00
2018-03-21T08:48:43.766Z,1.00
2018-03-21T08:51:10.147Z,1.10
2018-03-21T08:53:36.519Z,1.20
2018-03-21T08:56:02.994Z,1.40
2018-03-21T08:58:29.397Z,1.40
2018-03-21T09:00:55.785Z,1.50
2018-03-21T09:03:22.181Z,1.40
2018-03-21T09:05:49.316Z,1.50
2018-03-21T09:08:15.682Z,1.50
2018-03-21T09:10:42.081Z,1.60
2018-03-21T09:13:09.265Z,1.60
2018-03-21T09:15:35.689Z,1.50
2018-03-21T09:18:02.165Z,1.40
2018-03-21T09:20:28.561Z,1.40
2018-03-21T09:22:55.007Z,1.50
2018-03-21T09:25:21.428Z,1.50
2018-03-21T09:27:47.875Z,1.40
2018-03-21T09:30:14.271Z,1.50
2018-03-21T09:32:40.663Z,1.50
2018-03-21T09:35:07.114Z,1.50
2018-03-21T09:37:33.534Z,1.50
2018-03-21T09:39:59.934Z,1.40
2018-03-21T09:42:26.350Z,1.40
2018-03-21T09:44:52.773Z,1.40
2018-03-21T09:47:19.130Z,1.60
2018-03-21T09:49:45.534Z,1.70
2018-03-21T09:52:11.909Z,1.90
2018-03-21T09:54:42.296Z,1.90
2018-03-21T09:57:08.649Z,2.00
2018-03-21T09:59:35.042Z,2.20
2018-03-21T10:02:01.437Z,2.40
2018-03-21T10:04:27.826Z,2.40
2018-03-21T10:06:54.214Z,2.50
2018-03-21T10:09:20.580Z,2.40
2018-03-21T10:11:47.111Z,2.60
2018-03-21T10:14:13.494Z,2.70
2018-03-21T10:16:40.637Z,2.80
2018-03-21T10:19:07.858Z,2.80
2018-03-21T10:21:34.258Z,3.00
2018-03-21T10:24:00.657Z,3.00
2018-03-21T10:26:27.065Z,3.10
2018-03-21T10:28:53.576Z,3.30
2018-03-21T10:31:20.013Z,3.40
2018-03-21T10:33:46.431Z,3.30
2018-03-21T10:36:12.771Z,3.30
2018-03-21T10:38:39.206Z,3.30
2018-03-21T10:41:05.581Z,3.10
2018-03-21T10:43:32.764Z,3.10
2018-03-21T10:45:59.145Z,3.10
2018-03-21T10:48:25.547Z,3.20
2018-03-21T10:50:52.165Z,2.90
2018-03-21T10:53:18.590Z,2.80
2018-03-21T10:55:45.010Z,3.00
2018-03-21T10:58:11.406Z,3.30
2018-03-21T11:00:37.812Z,3.30
2018-03-21T11:03:04.238Z,3.40
2018-03-21T11:05:30.717Z,3.40
2018-03-21T11:07:57.822Z,3.50
2018-03-21T11:10:24.972Z,3.50
2018-03-21T11:12:51.369Z,3.50
2018-03-21T11:15:17.802Z,3.40
2018-03-21T11:17:44.181Z,3.20
2018-03-21T11:20:10.529Z,3.10
2018-03-21T11:22:37.725Z,3.10
2018-03-21T11:25:04.074Z,3.10
2018-03-21T11:27:30.419Z,3.20
2018-03-21T11:29:56.792Z,3.30
2018-03-21T11:32:23.297Z,3.30
2018-03-21T11:34:50.454Z,3.20
2018-03-21T11:37:16.853Z,3.20
2018-03-21T11:39:43.366Z,3.30
2018-03-21T11:42:09.804Z,3.40
2018-03-21T11:44:36.173Z,3.50
2018-03-21T11:47:02.574Z,3.60
2018-03-21T11:49:28.967Z,3.50
2018-03-21T11:51:55.380Z,3.60
2018-03-21T11:54:22.479Z,3.90
2018-03-21T11:56:48.869Z,3.90
2018-03-21T11:59:15.301Z,4.00
2018-03-21T12:01:41.690Z,3.90
2018-03-21T12:04:08.145Z,3.80
2018-03-21T12:06:35.318Z,3.40
2018-03-21T12:09:01.738Z,3.40
2018-03-21T12:11:28.136Z,3.30
2018-03-21T12:13:54.572Z,3.30
2018-03-21T12:16:20.993Z,3.50
2018-03-21T12:18:47.388Z,3.70
2018-03-21T12:21:13.791Z,3.70
2018-03-21T12:23:40.153Z,3.80
2018-03-21T12:26:06.584Z,3.90
2018-03-21T12:28:32.929Z,3.90
2018-03-21T12:30:59.350Z,3.80
2018-03-21T12:33:25.819Z,3.90
2018-03-21T12:35:52.232Z,4.10
2018-03-21T12:38:18.621Z,4.20
2018-03-21T12:40:45.056Z,4.10
2018-03-21T12:43:11.522Z,4.10
2018-03-21T12:45:37.864Z,4.10
2018-03-21T12:48:04.284Z,4.10
2018-03-21T12:50:31.587Z,4.20
2018-03-21T12:52:58.697Z,4.30
2018-03-21T12:55:25.057Z,4.20
2018-03-21T12:57:53.254Z,4.30
2018-03-21T13:00:19.637Z,4.20
2018-03-21T13:02:46.062Z,4.20
2018-03-21T13:05:12.455Z,4.20
2018-03-21T13:07:38.843Z,4.30
2018-03-21T13:10:06.048Z,4.30
2018-03-21T13:12:32.408Z,4.30
2018-03-21T13:14:58.821Z,4.40
2018-03-21T13:17:25.222Z,4.20
2018-03-21T13:19:51.595Z,4.20
2018-03-21T13:22:18.036Z,4.30
2018-03-21T13:24:45.170Z,4.20
2018-03-21T13:27:11.565Z,4.20
2018-03-21T13:29:37.967Z,4.00
2018-03-21T13:32:05.102Z,4.00
2018-03-21T13:34:32.225Z,3.90
2018-03-21T13:36:58.648Z,3.90
2018-03-21T13:39:25.021Z,4.00
2018-03-21T13:41:52.167Z,4.10
2018-03-21T13:44:18.553Z,4.10
2018-03-21T13:46:45.752Z,4.40
2018-03-21T13:49:12.159Z,4.30
2018-03-21T13:51:38.569Z,4.40
2018-03-21T13:54:05.000Z,4.50
2018-03-21T13:56:31.442Z,4.50
2018-03-21T13:58:57.830Z,4.60
2018-03-21T14:01:24.187Z,4.60
2018-03-21T14:03:50.636Z,4.40
2018-03-21T14:06:17.018Z,4.30
2018-03-21T14:08:43.544Z,4.40
2018-03-21T14:11:10.708Z,4.50
2018-03-21T14:13:37.202Z,4.50
2018-03-21T14:16:04.389Z,4.50
2018-03-21T14:18:30.801Z,4.50
2018-03-21T14:20:58.313Z,4.50
2018-03-21T14:23:24.709Z,4.70
2018-03-21T14:25:51.142Z,4.70
2018-03-21T14:28:17.574Z,4.70
2018-03-21T14:30:44.783Z,4.70
2018-03-21T14:33:11.168Z,4.70
2018-03-21T14:35:37.564Z,4.70
2018-03-21T14:38:04.750Z,4.90
2018-03-21T14:40:31.157Z,4.90
2018-03-21T14:42:57.511Z,4.90
2018-03-21T14:45:25.095Z,4.80
2018-03-21T14:47:51.460Z,4.70
2018-03-21T14:50:18.625Z,4.80
2018-03-21T14:52:44.988Z,4.80
2018-03-21T14:55:11.362Z,4.90
2018-03-21T14:57:38.589Z,5.00
2018-03-21T15:00:05.048Z,4.90
2018-03-21T15:02:32.164Z,5.40
2018-03-21T15:04:58.627Z,5.40
2018-03-21T15:07:25.748Z,6.60
2018-03-21T15:09:52.210Z,6.60
2018-03-21T15:12:18.612Z,7.50
2018-03-21T15:14:45.052Z,8.40
2018-03-21T15:17:11.484Z,8.50
2018-03-21T15:19:37.864Z,8.20
2018-03-21T15:22:04.307Z,7.70
2018-03-21T15:24:30.765Z,7.60
2018-03-21T15:27:03.920Z,7.60
2018-03-21T15:29:30.365Z,8.10
2018-03-21T15:31:56.787Z,8.20
2018-03-21T15:34:23.135Z,7.30
2018-03-21T15:36:49.573Z,7.40
2018-03-21T15:39:16.048Z,7.70
2018-03-21T15:41:43.163Z,6.90
2018-03-21T15:44:09.552Z,6.90
2018-03-21T15:46:35.949Z,6.40
2018-03-21T15:49:02.403Z,6.10
2018-03-21T15:51:28.826Z,6.00
2018-03-21T15:53:55.334Z,6.00
2018-03-21T15:56:22.502Z,5.90
2018-03-21T15:58:48.876Z,5.80
2018-03-21T16:01:15.293Z,5.50
2018-03-21T16:03:41.685Z,5.10
2018-03-21T16:06:08.891Z,5.00
2018-03-21T16:08:35.268Z,5.00
2018-03-21T16:11:02.379Z,5.20
2018-03-21T16:13:28.862Z,5.10
2018-03-21T16:15:55.274Z,5.20
2018-03-21T16:18:22.415Z,5.30
2018-03-21T16:20:49.569Z,5.10
2018-03-21T16:23:17.514Z,4.90
2018-03-21T16:25:43.911Z,4.90
2018-03-21T16:28:10.308Z,4.80
2018-03-21T16:30:37.506Z,4.90
2018-03-21T16:33:03.891Z,4.80
2018-03-21T16:35:31.106Z,4.90
2018-03-21T16:37:58.256Z,4.80
2018-03-21T16:40:25.608Z,4.80
2018-03-21T16:42:52.141Z,4.80
2018-03-21T16:45:22.407Z,4.80
2018-03-21T16:47:54.090Z,4.80
2018-03-21T16:50:20.585Z,4.80
2018-03-21T16:52:47.806Z,4.70
2018-03-21T16:55:14.164Z,4.70
2018-03-21T16:57:40.614Z,4.80
2018-03-21T17:00:07.091Z,4.70
2018-03-21T17:02:33.503Z,4.60
2018-03-21T17:04:59.916Z,4.60
2018-03-21T17:07:26.415Z,4.50
2018-03-21T17:09:52.893Z,4.50
2018-03-21T17:12:19.323Z,4.50
2018-03-21T17:14:45.768Z,4.50
2018-03-21T17:17:12.219Z,4.40
2018-03-21T17:19:38.600Z,4.40
2018-03-21T17:22:05.064Z,4.40
2018-03-21T17:24:31.498Z,4.40
2018-03-21T17:26:57.924Z,4.40
2018-03-21T17:29:24.367Z,4.40
2018-03-21T17:31:50.799Z,4.30
2018-03-21T17:34:17.224Z,4.30
2018-03-21T17:36:43.668Z,4.30
2018-03-21T17:39:10.166Z,4.30
2018-03-21T17:41:36.609Z,4.20
2018-03-21T17:44:03.058Z,4.20
2018-03-21T17:46:29.499Z,4.20
2018-03-21T17:48:55.959Z,4.20
2018-03-21T17:51:23.114Z,4.10
2018-03-21T17:53:50.264Z,4.10
2018-03-21T17:56:16.875Z,4.10
2018-03-21T17:58:43.383Z,4.10
2018-03-21T18:01:09.864Z,4.10
2018-03-21T18:03:36.993Z,4.10
2018-03-21T18:06:03.518Z,4.10
2018-03-21T18:08:29.939Z,4.10
2018-03-21T18:10:56.381Z,4.00
2018-03-21T18:13:22.884Z,4.00
2018-03-21T18:15:49.386Z,3.90
2018-03-21T18:18:15.819Z,3.90
2018-03-21T18:20:42.299Z,3.70
2018-03-21T18:23:08.795Z,3.60
2018-03-21T18:25:35.298Z,3.50
2018-03-21T18:28:01.797Z,3.50
2018-03-21T18:30:28.277Z,3.40
2018-03-21T18:32:54.840Z,3.40
2018-03-21T18:35:21.388Z,3.40
2018-03-21T18:37:47.821Z,3.30
2018-03-21T18:40:14.261Z,3.20
2018-03-21T18:42:41.506Z,2.90
2018-03-21T18:45:07.943Z,2.90
2018-03-21T18:47:36.310Z,2.80
2018-03-21T18:50:02.790Z,2.70
2018-03-21T18:52:29.995Z,2.60
2018-03-21T18:54:56.461Z,2.60
2018-03-21T18:57:23.676Z,2.50
2018-03-21T18:59:50.109Z,2.50
2018-03-21T19:02:16.505Z,2.50
2018-03-21T19:04:42.925Z,2.40
2018-03-21T19:07:10.175Z,2.20
2018-03-21T19:09:36.594Z,2.10
2018-03-21T19:12:03.034Z,2.00
2018-03-21T19:14:30.245Z,2.00
2018-03-21T19:16:56.668Z,1.90
2018-03-21T19:19:23.163Z,2.00
2018-03-21T19:21:49.532Z,2.00
2018-03-21T19:24:16.186Z,2.00
2018-03-21T19:26:43.418Z,1.90
2018-03-21T19:29:09.862Z,1.90
2018-03-21T19:31:36.318Z,1.90
2018-03-21T19:34:03.561Z,1.90
2018-03-21T19:36:30.019Z,1.90
2018-03-21T19:38:56.511Z,1.90
2018-03-21T19:41:22.962Z,1.90
2018-03-21T19:43:50.111Z,1.70
2018-03-21T19:46:17.363Z,1.60
2018-03-21T19:48:44.626Z,1.60
2018-03-21T19:51:11.053Z,1.60
2018-03-21T19:53:38.240Z,1.50
2018-03-21T19:56:04.711Z,1.50
2018-03-21T19:58:31.917Z,1.50
2018-03-21T20:00:58.356Z,1.40
2018-03-21T20:03:24.786Z,1.50
2018-03-21T20:05:51.543Z,1.40
2018-03-21T20:08:17.997Z,1.40
2018-03-21T20:10:44.446Z,1.30
2018-03-21T20:13:10.954Z,1.30
2018-03-21T20:15:37.460Z,1.30
2018-03-21T20:18:04.011Z,1.20
2018-03-21T20:20:30.493Z,1.20
2018-03-21T20:22:57.757Z,1.10
2018-03-21T20:25:24.250Z,1.10
2018-03-21T20:27:50.726Z,1.10
2018-03-21T20:30:17.232Z,1.00
2018-03-21T20:32:43.811Z,1.00
2018-03-21T20:35:10.337Z,1.00
2018-03-21T20:37:36.906Z,1.00
2018-03-21T20:40:03.507Z,1.00
2018-03-21T20:42:29.940Z,1.00
2018-03-21T20:44:56.540Z,0.90
2018-03-21T20:47:23.122Z,0.90
2018-03-21T20:49:49.656Z,1.00
2018-03-21T20:52:16.108Z,1.00
2018-03-21T20:54:42.693Z,1.00
2018-03-21T20:57:09.127Z,1.00
2018-03-21T20:59:35.646Z,1.00
2018-03-21T21:02:02.137Z,1.00
2018-03-21T21:04:28.642Z,0.90
2018-03-21T21:06:55.110Z,0.90
2018-03-21T21:09:21.551Z,0.80
2018-03-21T21:11:47.965Z,0.80
2018-03-21T21:14:14.400Z,0.80
2018-03-21T21:16:40.869Z,0.80
2018-03-21T21:19:08.019Z,0.90
2018-03-21T21:21:35.221Z,0.80
2018-03-21T21:24:01.662Z,0.80
2018-03-21T21:26:28.125Z,0.70
2018-03-21T21:28:55.294Z,0.70
2018-03-21T21:31:21.734Z,0.70
2018-03-21T21:33:48.189Z,0.60
2018-03-21T21:36:14.696Z,0.60
2018-03-21T21:38:41.092Z,0.50
2018-03-21T21:41:07.552Z,0.50
2018-03-21T21:43:34.765Z,0.50
2018-03-21T21:46:01.211Z,0.50
2018-03-21T21:48:27.611Z,0.50
2018-03-21T21:50:54.079Z,0.50
2018-03-21T21:53:20.529Z,0.50
2018-03-21T21:55:47.696Z,0.50
2018-03-21T21:58:14.140Z,0.50
2018-03-21T22:00:40.521Z,0.50
2018-03-21T22:03:06.941Z,0.40
2018-03-21T22:05:33.379Z,0.40
2018-03-21T22:08:00.573Z,0.40
2018-03-21T22:10:27.155Z,0.40
2018-03-21T22:12:53.660Z,0.30
2018-03-21T22:15:22.147Z,0.30
2018-03-21T22:17:48.634Z,0.20
2018-03-21T22:20:15.063Z,0.20
2018-03-21T22:22:41.454Z,0.20
2018-03-21T22:25:07.866Z,0.20
2018-03-21T22:27:34.295Z,0.20
2018-03-21T22:30:00.730Z,0.20
2018-03-21T22:32:27.156Z,0.20
2018-03-21T22:34:53.545Z,0.20
2018-03-21T22:37:19.970Z,0.20
2018-03-21T22:39:46.364Z,0.30
2018-03-21T22:42:12.903Z,0.30
2018-03-21T22:44:40.078Z,0.20
2018-03-21T22:47:06.567Z,0.20
2018-03-21T22:49:33.050Z,0.20
2018-03-21T22:51:59.470Z,0.00
2018-03-21T22:54:26.022Z,0.00
2018-03-21T22:56:52.437Z,0.00
2018-03-21T22:59:19.688Z,0.00
2018-03-21T23:01:46.102Z,0.00
2018-03-21T23:04:12.510Z,0.00
2018-03-21T23:06:38.968Z,-0.10
2018-03-21T23:09:05.411Z,-0.10
2018-03-21T23:11:31.793Z,-0.10
2018-03-21T23:13:58.295Z,-0.20
2018-03-21T23:16:25.438Z,-0.30
2018-03-21T23:18:52.570Z,-0.30
2018-03-21T23:21:19.004Z,-0.40
2018-03-21T23:23:45.493Z,-0.30
2018-03-21T23:26:12.003Z,-0.30
2018-03-21T23:28:39.228Z,-0.20
2018-03-21T23:31:06.379Z,-0.20
2018-03-21T23:33:32.758Z,-0.20
2018-03-21T23:35:59.260Z,-0.20
2018-03-21T23:38:25.705Z,-0.20
2018-03-21T23:40:52.283Z,-0.30
2018-03-21T23:43:18.750Z,-0.30
2018-03-21T23:45:45.338Z,-0.30
2018-03-21T23:48:12.540Z,-0.30
2018-03-21T23:50:39.732Z,-0.30
2018-03-21T23:53:06.103Z,-0.30
2018-03-21T23:55:32.561Z,-0.50
2018-03-21T23:57:59.026Z,-0.60
